Time,TemperatureF,DewpointF,PressureIn,WindDirection,WindDirectionDegrees,WindSpeedMPH,WindSpeedGustMPH,Humidity,HourlyPrecipIn,Conditions,Clouds,dailyrainin,SoftwareType,DateUTC
2013-10-14 00:08:00,65.1,42.6,29.91,SE,134,8.0,8.0,44,0.00,,,0.00,Wunderground v.1.15,2013-10-14 06:08:00,
2013-10-14 00:18:00,64.8,42.9,29.91,SE,135,7.0,8.0,45,0.00,,,0.00,Wunderground v.1.15,2013-10-14 06:18:00,
2013-10-14 00:28:00,64.4,42.6,29.92,SSE,148,6.0,6.0,45,0.00,,,0.00,Wunderground v.1.15,2013-10-14 06:28:00,
2013-10-14 00:38:00,63.9,42.7,29.91,SSE,162,5.0,5.0,46,0.00,,,0.00,Wunderground v.1.15,2013-10-14 06:38:00,
2013-10-14 00:48:00,63.3,42.7,29.91,SSE,153,4.0,6.0,47,0.00,,,0.00,Wunderground v.1.15,2013-10-14 06:48:00,
2013-10-14 00:58:00,62.9,42.9,29.92,SSE,154,2.0,2.0,48,0.00,,,0.00,Wunderground v.1.15,2013-10-14 06:58:00,
2013-10-14 01:08:00,62.2,43.3,29.92,SSW,198,2.0,2.0,50,0.00,,,0.00,Wunderground v.1.15,2013-10-14 07:08:00,
2013-10-14 01:23:00,61.6,43.3,29.92,SE,145,4.0,4.0,51,0.00,,,0.00,Wunderground v.1.15,2013-10-14 07:23:00,
2013-10-14 01:33:00,61.2,43.4,29.92,SE,132,5.0,5.0,52,0.00,,,0.00,Wunderground v.1.15,2013-10-14 07:33:00,
2013-10-14 01:43:00,60.6,43.4,29.92,ESE,118,3.0,5.0,53,0.00,,,0.00,Wunderground v.1.15,2013-10-14 07:43:00,
2013-10-14 01:53:00,60.4,43.2,29.92,SE,146,5.0,6.0,53,0.00,,,0.00,Wunderground v.1.15,2013-10-14 07:53:00,
2013-10-14 01:58:00,60.1,42.9,29.92,ESE,108,5.0,5.0,53,0.00,,,0.00,Wunderground v.1.15,2013-10-14 07:58:00,
2013-10-14 02:08:00,59.5,42.8,29.93,WSW,253,2.0,2.0,54,0.00,,,0.00,Wunderground v.1.15,2013-10-14 08:08:00,
2013-10-14 02:18:00,58.6,42.9,29.93,West,278,0.0,0.0,56,0.00,,,0.00,Wunderground v.1.15,2013-10-14 08:18:00,
2013-10-14 02:28:00,57.5,42.8,29.93,SSE,153,0.0,0.0,58,0.00,,,0.00,Wunderground v.1.15,2013-10-14 08:28:00,
2013-10-14 02:38:00,57.5,42.8,29.93,SE,134,3.0,3.0,58,0.00,,,0.00,Wunderground v.1.15,2013-10-14 08:38:00,
2013-10-14 02:48:00,57.4,43.2,29.93,SE,136,2.0,2.0,59,0.00,,,0.00,Wunderground v.1.15,2013-10-14 08:48:00,
2013-10-14 02:58:00,56.6,42.9,29.92,SE,127,1.0,1.0,60,0.00,,,0.00,Wunderground v.1.15,2013-10-14 08:58:00,
2013-10-14 03:08:00,55.8,43.0,29.93,ESE,117,0.0,0.0,62,0.00,,,0.00,Wunderground v.1.15,2013-10-14 09:08:00,
2013-10-14 03:18:00,55.3,42.9,29.92,ESE,121,0.0,0.0,63,0.00,,,0.00,Wunderground v.1.15,2013-10-14 09:18:00,
2013-10-14 03:28:00,54.7,42.8,29.92,ESE,122,0.0,0.0,64,0.00,,,0.00,Wunderground v.1.15,2013-10-14 09:28:00,
2013-10-14 03:38:00,54.1,42.6,29.93,ESE,122,0.0,0.0,65,0.00,,,0.00,Wunderground v.1.15,2013-10-14 09:38:00,
2013-10-14 03:48:00,53.2,42.5,29.93,ESE,122,0.0,0.0,67,0.00,,,0.00,Wunderground v.1.15,2013-10-14 09:48:00,
2013-10-14 03:58:00,52.5,42.2,29.93,ESE,122,0.0,0.0,68,0.00,,,0.00,Wunderground v.1.15,2013-10-14 09:58:00,
2013-10-14 04:08:00,52.3,41.7,29.93,ESE,123,0.0,0.0,67,0.00,,,0.00,Wunderground v.1.15,2013-10-14 10:08:00,
2013-10-14 04:18:00,52.1,41.1,29.93,ESE,123,0.0,0.0,66,0.00,,,0.00,Wunderground v.1.15,2013-10-14 10:18:00,
2013-10-14 04:28:00,51.5,40.9,29.93,ESE,122,0.0,0.0,67,0.00,,,0.00,Wunderground v.1.15,2013-10-14 10:28:00,
2013-10-14 04:38:00,50.8,41.0,29.94,ESE,123,0.0,0.0,69,0.00,,,0.00,Wunderground v.1.15,2013-10-14 10:38:00,
2013-10-14 04:43:00,50.6,40.4,29.94,ESE,123,0.0,0.0,68,0.00,,,0.00,Wunderground v.1.15,2013-10-14 10:43:00,
2013-10-14 04:53:00,50.3,40.5,29.94,ESE,123,0.0,0.0,69,0.00,,,0.00,Wunderground v.1.15,2013-10-14 10:53:00,
2013-10-14 04:58:00,50.4,40.2,29.95,ESE,105,0.0,1.0,68,0.00,,,0.00,Wunderground v.1.15,2013-10-14 10:58:00,
2013-10-14 05:08:00,51.3,40.3,29.95,WNW,295,0.0,0.0,66,0.00,,,0.00,Wunderground v.1.15,2013-10-14 11:08:00,
2013-10-14 05:18:00,51.0,39.2,29.95,SW,217,0.0,0.0,64,0.00,,,0.00,Wunderground v.1.15,2013-10-14 11:18:00,
2013-10-14 05:28:00,51.5,36.3,29.96,WNW,295,0.0,0.0,56,0.00,,,0.00,Wunderground v.1.15,2013-10-14 11:28:00,
2013-10-14 05:38:00,52.0,35.9,29.96,WNW,295,0.0,0.0,54,0.00,,,0.00,Wunderground v.1.15,2013-10-14 11:38:00,
2013-10-14 05:48:00,52.2,34.1,29.96,NW,307,0.0,0.0,50,0.00,,,0.00,Wunderground v.1.15,2013-10-14 11:48:00,
2013-10-14 05:58:00,51.8,35.2,29.97,West,270,0.0,0.0,53,0.00,,,0.00,Wunderground v.1.15,2013-10-14 11:58:00,
2013-10-14 06:08:00,51.1,35.0,29.97,SSE,156,0.0,0.0,54,0.00,,,0.00,Wunderground v.1.15,2013-10-14 12:08:00,
2013-10-14 06:18:00,50.2,35.1,29.98,North,354,0.0,0.0,56,0.00,,,0.00,Wunderground v.1.15,2013-10-14 12:18:00,
2013-10-14 06:28:00,50.9,33.9,29.98,NNE,29,0.0,0.0,52,0.00,,,0.00,Wunderground v.1.15,2013-10-14 12:28:00,
2013-10-14 06:38:00,50.1,34.1,29.98,NNE,28,0.0,0.0,54,0.00,,,0.00,Wunderground v.1.15,2013-10-14 12:38:00,
2013-10-14 06:43:00,49.7,34.6,29.98,NNE,13,0.0,0.0,56,0.00,,,0.00,Wunderground v.1.15,2013-10-14 12:43:00,
2013-10-14 06:53:00,49.6,33.6,29.99,North,10,0.0,1.0,54,0.00,,,0.00,Wunderground v.1.15,2013-10-14 12:53:00,
2013-10-14 06:58:00,49.7,33.2,29.99,NNW,335,0.0,0.0,53,0.00,,,0.00,Wunderground v.1.15,2013-10-14 12:58:00,
2013-10-14 07:08:00,50.1,32.7,29.99,NNE,15,0.0,0.0,51,0.00,,,0.00,Wunderground v.1.15,2013-10-14 13:08:00,
2013-10-14 07:18:00,49.7,32.3,29.99,NNW,328,0.0,1.0,51,0.00,,,0.00,Wunderground v.1.15,2013-10-14 13:18:00,
2013-10-14 07:28:00,49.6,32.2,29.99,NNE,29,0.0,0.0,51,0.00,,,0.00,Wunderground v.1.15,2013-10-14 13:28:00,
2013-10-14 07:38:00,50.2,32.3,29.99,NNE,13,0.0,0.0,50,0.00,,,0.00,Wunderground v.1.15,2013-10-14 13:38:00,
2013-10-14 07:48:00,50.1,32.2,29.99,NNE,13,0.0,0.0,50,0.00,,,0.00,Wunderground v.1.15,2013-10-14 13:48:00,
2013-10-14 07:58:00,50.9,32.4,30.00,NW,315,0.0,0.0,49,0.00,,,0.00,Wunderground v.1.15,2013-10-14 13:58:00,
2013-10-14 08:08:00,51.5,32.4,29.99,NW,308,0.0,0.0,48,0.00,,,0.00,Wunderground v.1.15,2013-10-14 14:08:00,
2013-10-14 08:18:00,52.1,32.5,30.00,North,359,0.0,1.0,47,0.00,,,0.00,Wunderground v.1.15,2013-10-14 14:18:00,
2013-10-14 08:28:00,52.9,32.7,30.00,NNW,345,1.0,1.0,46,0.00,,,0.00,Wunderground v.1.15,2013-10-14 14:28:00,
2013-10-14 08:38:00,54.0,32.6,30.00,NW,315,2.0,2.0,44,0.00,,,0.00,Wunderground v.1.15,2013-10-14 14:38:00,
2013-10-14 08:43:00,54.6,32.5,30.01,NNE,15,2.0,2.0,43,0.00,,,0.00,Wunderground v.1.15,2013-10-14 14:43:00,
2013-10-14 08:53:00,55.5,32.8,30.01,NNW,347,2.0,3.0,42,0.00,,,0.00,Wunderground v.1.15,2013-10-14 14:53:00,
2013-10-14 08:58:00,55.9,32.5,30.00,NW,317,2.0,2.0,41,0.00,,,0.00,Wunderground v.1.15,2013-10-14 14:58:00,
2013-10-14 09:08:00,56.5,33.1,30.01,NW,309,3.0,3.0,41,0.00,,,0.00,Wunderground v.1.15,2013-10-14 15:08:00,
2013-10-14 09:18:00,57.1,33.0,30.01,North,6,3.0,3.0,40,0.00,,,0.00,Wunderground v.1.15,2013-10-14 15:18:00,
2013-10-14 09:28:00,57.9,33.1,30.01,WNW,287,2.0,2.0,39,0.00,,,0.00,Wunderground v.1.15,2013-10-14 15:28:00,
2013-10-14 09:38:00,58.7,32.5,30.01,NW,304,3.0,5.0,37,0.00,,,0.00,Wunderground v.1.15,2013-10-14 15:38:00,
2013-10-14 09:48:00,58.8,32.6,30.01,NW,320,4.0,4.0,37,0.00,,,0.00,Wunderground v.1.15,2013-10-14 15:48:00,
2013-10-14 09:58:00,59.0,32.1,30.01,NNW,348,3.0,7.0,36,0.00,,,0.00,Wunderground v.1.15,2013-10-14 15:58:00,
2013-10-14 10:08:00,59.2,32.2,30.00,NW,309,4.0,6.0,36,0.00,,,0.00,Wunderground v.1.15,2013-10-14 16:08:00,
2013-10-14 10:18:00,59.5,32.5,30.01,WSW,255,3.0,6.0,36,0.00,,,0.00,Wunderground v.1.15,2013-10-14 16:18:00,
2013-10-14 10:28:00,60.1,32.3,30.00,South,187,4.0,4.0,35,0.00,,,0.00,Wunderground v.1.15,2013-10-14 16:28:00,
2013-10-14 10:38:00,59.9,31.4,30.00,West,264,4.0,4.0,34,0.00,,,0.00,Wunderground v.1.15,2013-10-14 16:38:00,
2013-10-14 10:43:00,60.3,31.0,30.00,NW,326,5.0,8.0,33,0.00,,,0.00,Wunderground v.1.15,2013-10-14 16:43:00,
2013-10-14 10:53:00,61.0,31.7,30.00,WNW,295,4.0,4.0,33,0.00,,,0.00,Wunderground v.1.15,2013-10-14 16:53:00,
2013-10-14 10:58:00,61.3,31.2,30.00,SW,214,4.0,7.0,32,0.00,,,0.00,Wunderground v.1.15,2013-10-14 16:58:00,
2013-10-14 11:08:00,61.9,32.5,30.00,SW,214,4.0,4.0,33,0.00,,,0.00,Wunderground v.1.15,2013-10-14 17:08:00,
2013-10-14 11:18:00,62.5,31.4,29.99,SSW,210,4.0,4.0,31,0.00,,,0.00,Wunderground v.1.15,2013-10-14 17:18:00,
2013-10-14 11:28:00,62.4,29.7,29.99,West,271,4.0,6.0,29,0.00,,,0.00,Wunderground v.1.15,2013-10-14 17:28:00,
2013-10-14 11:38:00,63.1,29.4,29.99,SW,228,4.0,4.0,28,0.00,,,0.00,Wunderground v.1.15,2013-10-14 17:38:00,
2013-10-14 11:48:00,63.0,29.4,29.99,West,269,5.0,6.0,28,0.00,,,0.00,Wunderground v.1.15,2013-10-14 17:48:00,
2013-10-14 11:58:00,62.8,30.0,29.98,SSW,207,4.0,4.0,29,0.00,,,0.00,Wunderground v.1.15,2013-10-14 17:58:00,
2013-10-14 12:08:00,63.2,30.4,29.98,West,269,4.0,7.0,29,0.00,,,0.00,Wunderground v.1.15,2013-10-14 18:08:00,
2013-10-14 12:18:00,63.2,30.4,29.97,WSW,258,4.0,4.0,29,0.00,,,0.00,Wunderground v.1.15,2013-10-14 18:18:00,
2013-10-14 12:28:00,63.5,31.5,29.97,West,266,5.0,5.0,30,0.00,,,0.00,Wunderground v.1.15,2013-10-14 18:28:00,
2013-10-14 12:38:00,63.8,30.0,29.96,WSW,257,4.0,6.0,28,0.00,,,0.00,Wunderground v.1.15,2013-10-14 18:38:00,
2013-10-14 12:43:00,64.0,30.2,29.96,West,269,5.0,6.0,28,0.00,,,0.00,Wunderground v.1.15,2013-10-14 18:43:00,
2013-10-14 12:53:00,64.6,30.7,29.96,NW,307,4.0,5.0,28,0.00,,,0.00,Wunderground v.1.15,2013-10-14 18:53:00,
2013-10-14 12:58:00,64.9,31.9,29.95,West,263,4.0,4.0,29,0.00,,,0.00,Wunderground v.1.15,2013-10-14 18:58:00,
2013-10-14 13:08:00,64.5,30.6,29.94,WSW,256,4.0,4.0,28,0.00,,,0.00,Wunderground v.1.15,2013-10-14 19:08:00,
2013-10-14 13:18:00,65.0,31.9,29.94,SW,226,2.0,3.0,29,0.00,,,0.00,Wunderground v.1.15,2013-10-14 19:18:00,
2013-10-14 13:23:00,65.4,31.4,29.93,SSE,160,3.0,3.0,28,0.00,,,0.00,Wunderground v.1.15,2013-10-14 19:23:00,
2013-10-14 13:33:00,66.0,29.1,29.93,WSW,250,3.0,5.0,25,0.00,,,0.00,Wunderground v.1.15,2013-10-14 19:33:00,
2013-10-14 13:43:00,66.4,30.4,29.92,NNW,328,4.0,7.0,26,0.00,,,0.00,Wunderground v.1.15,2013-10-14 19:43:00,
2013-10-14 13:53:00,65.6,28.8,29.92,SSW,208,5.0,5.0,25,0.00,,,0.00,Wunderground v.1.15,2013-10-14 19:53:00,
2013-10-14 13:58:00,66.5,29.6,29.92,WSW,249,4.0,4.0,25,0.00,,,0.00,Wunderground v.1.15,2013-10-14 19:58:00,
2013-10-14 14:08:00,66.6,27.6,29.91,South,183,6.0,8.0,23,0.00,,,0.00,Wunderground v.1.15,2013-10-14 20:08:00,
2013-10-14 14:18:00,67.0,27.9,29.91,WSW,255,3.0,3.0,23,0.00,,,0.00,Wunderground v.1.15,2013-10-14 20:18:00,
2013-10-14 14:28:00,67.0,24.6,29.91,South,191,7.0,9.0,20,0.00,,,0.00,Wunderground v.1.15,2013-10-14 20:28:00,
2013-10-14 14:38:00,67.3,26.0,29.91,SSE,159,6.0,6.0,21,0.00,,,0.00,Wunderground v.1.15,2013-10-14 20:38:00,
2013-10-14 14:43:00,67.4,27.2,29.90,East,92,5.0,6.0,22,0.00,,,0.00,Wunderground v.1.15,2013-10-14 20:43:00,
2013-10-14 14:53:00,67.5,25.0,29.90,West,273,5.0,8.0,20,0.00,,,0.00,Wunderground v.1.15,2013-10-14 20:53:00,
2013-10-14 14:58:00,67.5,26.2,29.90,SSW,205,6.0,6.0,21,0.00,,,0.00,Wunderground v.1.15,2013-10-14 20:58:00,
2013-10-14 15:08:00,67.8,25.2,29.91,West,273,5.0,5.0,20,0.00,,,0.00,Wunderground v.1.15,2013-10-14 21:08:00,
2013-10-14 15:18:00,67.7,25.1,29.90,SSE,156,5.0,5.0,20,0.00,,,0.00,Wunderground v.1.15,2013-10-14 21:18:00,
2013-10-14 15:23:00,67.5,23.7,29.90,NW,311,6.0,6.0,19,0.00,,,0.00,Wunderground v.1.15,2013-10-14 21:23:00,
2013-10-14 15:28:00,67.4,23.7,29.90,SSW,201,6.0,6.0,19,0.00,,,0.00,Wunderground v.1.15,2013-10-14 21:28:00,
2013-10-14 15:38:00,67.6,23.8,29.90,WNW,302,5.0,6.0,19,0.00,,,0.00,Wunderground v.1.15,2013-10-14 21:38:00,
2013-10-14 15:48:00,67.3,22.3,29.90,WSW,243,7.0,7.0,18,0.00,,,0.00,Wunderground v.1.15,2013-10-14 21:48:00,
2013-10-14 15:58:00,67.3,22.3,29.90,West,276,6.0,6.0,18,0.00,,,0.00,Wunderground v.1.15,2013-10-14 21:58:00,
2013-10-14 16:08:00,67.9,21.4,29.90,West,267,6.0,6.0,17,0.00,,,0.00,Wunderground v.1.15,2013-10-14 22:08:00,
2013-10-14 16:18:00,67.6,21.2,29.90,West,262,5.0,11.0,17,0.00,,,0.00,Wunderground v.1.15,2013-10-14 22:18:00,
2013-10-14 16:28:00,67.6,21.2,29.90,WNW,294,5.0,6.0,17,0.00,,,0.00,Wunderground v.1.15,2013-10-14 22:28:00,
2013-10-14 16:38:00,67.8,21.4,29.90,WSW,253,4.0,4.0,17,0.00,,,0.00,Wunderground v.1.15,2013-10-14 22:38:00,
2013-10-14 16:48:00,67.5,22.5,29.90,West,278,5.0,5.0,18,0.00,,,0.00,Wunderground v.1.15,2013-10-14 22:48:00,
2013-10-14 16:58:00,67.6,21.2,29.90,West,281,4.0,4.0,17,0.00,,,0.00,Wunderground v.1.15,2013-10-14 22:58:00,
2013-10-14 17:08:00,67.5,22.5,29.90,WNW,301,4.0,4.0,18,0.00,,,0.00,Wunderground v.1.15,2013-10-14 23:08:00,
2013-10-14 17:18:00,67.1,22.1,29.90,NW,314,5.0,7.0,18,0.00,,,0.00,Wunderground v.1.15,2013-10-14 23:18:00,
2013-10-14 17:28:00,67.2,22.2,29.90,West,278,4.0,9.0,18,0.00,,,0.00,Wunderground v.1.15,2013-10-14 23:28:00,
2013-10-14 17:38:00,66.9,22.0,29.90,NW,317,4.0,4.0,18,0.00,,,0.00,Wunderground v.1.15,2013-10-14 23:38:00,
2013-10-14 17:48:00,66.4,21.6,29.91,NW,319,4.0,4.0,18,0.00,,,0.00,Wunderground v.1.15,2013-10-14 23:48:00,
2013-10-14 17:58:00,66.2,21.4,29.91,NNW,328,3.0,3.0,18,0.00,,,0.00,Wunderground v.1.15,2013-10-14 23:58:00,
2013-10-14 18:08:00,65.2,20.6,29.92,NW,323,5.0,6.0,18,0.00,,,0.00,Wunderground v.1.15,2013-10-15 00:08:00,
2013-10-14 18:18:00,64.2,21.0,29.92,NNW,338,5.0,7.0,19,0.00,,,0.00,Wunderground v.1.15,2013-10-15 00:18:00,
2013-10-14 18:28:00,63.1,21.3,29.93,NNW,338,5.0,5.0,20,0.00,,,0.00,Wunderground v.1.15,2013-10-15 00:28:00,
2013-10-14 18:38:00,62.2,21.7,29.93,NNE,25,6.0,6.0,21,0.00,,,0.00,Wunderground v.1.15,2013-10-15 00:38:00,
2013-10-14 18:48:00,61.4,21.1,29.93,NW,325,4.0,5.0,21,0.00,,,0.00,Wunderground v.1.15,2013-10-15 00:48:00,
2013-10-14 18:58:00,60.7,21.6,29.94,NE,41,3.0,3.0,22,0.00,,,0.00,Wunderground v.1.15,2013-10-15 00:58:00,
2013-10-14 19:08:00,60.0,21.0,29.95,North,349,2.0,2.0,22,0.00,,,0.00,Wunderground v.1.15,2013-10-15 01:08:00,
2013-10-14 19:18:00,59.3,20.4,29.95,NNE,20,1.0,2.0,22,0.00,,,0.00,Wunderground v.1.15,2013-10-15 01:18:00,
2013-10-14 19:28:00,58.9,20.1,29.95,NNE,14,2.0,3.0,22,0.00,,,0.00,Wunderground v.1.15,2013-10-15 01:28:00,
2013-10-14 19:38:00,58.9,20.1,29.96,North,359,3.0,3.0,22,0.00,,,0.00,Wunderground v.1.15,2013-10-15 01:38:00,
2013-10-14 19:48:00,58.8,18.9,29.96,NNE,21,3.0,3.0,21,0.00,,,0.00,Wunderground v.1.15,2013-10-15 01:48:00,
2013-10-14 19:58:00,59.0,17.9,29.96,NNE,20,4.0,4.0,20,0.00,,,0.00,Wunderground v.1.15,2013-10-15 01:58:00,
2013-10-14 20:08:00,58.9,17.8,29.97,North,356,4.0,5.0,20,0.00,,,0.00,Wunderground v.1.15,2013-10-15 02:08:00,
2013-10-14 20:18:00,58.7,17.7,29.97,North,1,3.0,3.0,20,0.00,,,0.00,Wunderground v.1.15,2013-10-15 02:18:00,
2013-10-14 20:28:00,58.5,17.5,29.98,North,357,4.0,5.0,20,0.00,,,0.00,Wunderground v.1.15,2013-10-15 02:28:00,
2013-10-14 20:38:00,58.0,17.1,29.98,North,357,3.0,5.0,20,0.00,,,0.00,Wunderground v.1.15,2013-10-15 02:38:00,
2013-10-14 20:48:00,57.6,17.9,29.98,NNW,335,3.0,4.0,21,0.00,,,0.00,Wunderground v.1.15,2013-10-15 02:48:00,
2013-10-14 20:58:00,57.2,17.6,29.99,NW,323,4.0,4.0,21,0.00,,,0.00,Wunderground v.1.15,2013-10-15 02:58:00,
2013-10-14 21:03:00,57.2,18.6,29.98,NNW,345,5.0,5.0,22,0.00,,,0.00,Wunderground v.1.15,2013-10-15 03:03:00,
2013-10-14 21:13:00,57.0,18.5,29.99,NNE,23,4.0,8.0,22,0.00,,,0.00,Wunderground v.1.15,2013-10-15 03:13:00,
2013-10-14 21:23:00,56.6,18.1,29.99,North,3,3.0,4.0,22,0.00,,,0.00,Wunderground v.1.15,2013-10-15 03:23:00,
2013-10-14 21:33:00,56.1,18.8,30.00,North,360,2.0,2.0,23,0.00,,,0.00,Wunderground v.1.15,2013-10-15 03:33:00,
2013-10-14 21:38:00,55.7,18.4,30.00,North,1,1.0,1.0,23,0.00,,,0.00,Wunderground v.1.15,2013-10-15 03:38:00,
2013-10-14 21:48:00,54.9,18.7,30.00,NNE,19,1.0,1.0,24,0.00,,,0.00,Wunderground v.1.15,2013-10-15 03:48:00,
2013-10-14 21:58:00,54.2,19.1,30.00,North,355,1.0,1.0,25,0.00,,,0.00,Wunderground v.1.15,2013-10-15 03:58:00,
2013-10-14 22:03:00,54.0,18.9,30.00,NNW,331,2.0,2.0,25,0.00,,,0.00,Wunderground v.1.15,2013-10-15 04:03:00,
2013-10-14 22:13:00,53.4,19.3,30.01,NNW,339,1.0,2.0,26,0.00,,,0.00,Wunderground v.1.15,2013-10-15 04:13:00,
2013-10-14 22:18:00,53.3,19.2,30.01,North,359,1.0,1.0,26,0.00,,,0.00,Wunderground v.1.15,2013-10-15 04:18:00,
2013-10-14 22:23:00,52.9,19.8,30.01,North,9,1.0,2.0,27,0.00,,,0.00,Wunderground v.1.15,2013-10-15 04:23:00,
2013-10-14 22:28:00,52.7,19.6,30.01,NNW,336,1.0,1.0,27,0.00,,,0.00,Wunderground v.1.15,2013-10-15 04:28:00,
2013-10-14 22:33:00,52.4,20.2,30.01,NW,316,1.0,1.0,28,0.00,,,0.00,Wunderground v.1.15,2013-10-15 04:33:00,
2013-10-14 22:43:00,51.8,20.5,30.01,NNW,347,0.0,0.0,29,0.00,,,0.00,Wunderground v.1.15,2013-10-15 04:43:00,
2013-10-14 22:53:00,50.9,21.3,30.01,NNW,347,0.0,0.0,31,0.00,,,0.00,Wunderground v.1.15,2013-10-15 04:53:00,
2013-10-14 22:58:00,50.3,20.8,30.01,NNW,347,0.0,0.0,31,0.00,,,0.00,Wunderground v.1.15,2013-10-15 04:58:00,
2013-10-14 23:08:00,49.3,21.4,30.01,NNW,347,0.0,0.0,33,0.00,,,0.00,Wunderground v.1.15,2013-10-15 05:08:00,
2013-10-14 23:18:00,47.6,22.6,30.02,NNW,347,0.0,0.0,37,0.00,,,0.00,Wunderground v.1.15,2013-10-15 05:18:00,
2013-10-14 23:28:00,46.5,22.2,30.02,NNW,347,0.0,0.0,38,0.00,,,0.00,Wunderground v.1.15,2013-10-15 05:28:00,
2013-10-14 23:33:00,46.1,23.1,30.02,NNW,347,0.0,0.0,40,0.00,,,0.00,Wunderground v.1.15,2013-10-15 05:33:00,
2013-10-14 23:43:00,46.3,22.7,30.02,ESE,121,0.0,1.0,39,0.00,,,0.00,Wunderground v.1.15,2013-10-15 05:43:00,
2013-10-14 23:48:00,46.0,23.0,30.02,ESE,121,0.0,0.0,40,0.00,,,0.00,Wunderground v.1.15,2013-10-15 05:48:00,
2013-10-14 23:58:00,45.3,23.0,30.03,ESE,121,0.0,0.0,41,0.00,,,0.00,Wunderground v.1.15,2013-10-15 05:58:00,